Skip Navigation Links
NOAA logo - Click to go to the NOAA homepage
NOAA's National Weather Service
Alaska Aviation Weather Unit
  NWS logo - Click to go to the NWS homepage
Left Navbar Graphic     09 AKDT = 17 GMT

   
NOAA is celebrating 200 years of science, service, and stewardship. Visit the NOAA 200th celebration Web site to learn more.
USA.gov is the U.S. Government's official Web portal to all Federal, state and local government Web resources and services.
Facebook
NWS on Facebook

Important Change Regarding the AAWU Web Presence

 

Over the last several months, the AAWU has been working to navigate its webpages to a nationally supported server. Security, as well as other needs, have necessitated the change.  In the process, we have made an effort to enhance the functionality of our website, as well as some of our products. As of June 20, 2017, aawu.arh.noaa.gov will be discontinued. The new AAWU web address is weather.gov/aawu. It is now live and will run in-parallel with the old site until it is discontinued. Please send any feedback or questions regarding the new webpages to nws.ar.aawu.webauthors@noaa.gov.  Thank you for your patience during this time of transition.
AAWU Home :: Display TAF Add Bookmark
TAF PAAQ 271141Z 2712/2812 13018G25KT P6SM FEW050 OVC080
     FM271600 12012KT P6SM FEW080 SCT120
     FM272000 14015G25KT P6SM VCSH SCT070 OVC100
     FM280200 14018G30KT P6SM VCSH SCT090 BKN150
     FM280800 13015G25KT P6SM FEW100 SCT250=
METAR PAAQ 271153Z AUTO 13011G19KT 10SM OVC100 04/01 A3013 RMK AO2 PK
     WND 13026/1058 SLP205 T00390011 10072 20039 53003 TSNO=

METAR PAAQ 271253Z AUTO 11010G19KT 10SM OVC100 04/01 A3013 RMK AO2
     SLP206 T00390011 TSNO=

METAR PAAQ 271353Z AUTO 11010KT 10SM OVC095 04/01 A3013 RMK AO2 SLP205
     T00390011 TSNO=

METAR PAAQ 271453Z AUTO 10007KT 10SM OVC080 04/01 A3013 RMK AO2 SLP205
     T00440006 54000 TSNO=

METAR PAAQ 271553Z 06009KT 10SM FEW080 BKN095 OVC180 06/00 A3013 RMK
 AO2 SLP205 T00560000=

METAR PAAQ 271653Z 11009KT 10SM BKN080 OVC180 06/01 A3012 RMK AO2
 SLP203 T00610006=


NOAA's National Weather Service
Alaska Aviation Weather Unit
6930 Sand Lake Road
Anchorage, AK 99502-1845
Disclaimer
Credits
Glossary
Privacy Policy
About Us
Career Opportunities
Contact AAWU Internet Services Site last modified: April, 17th 2012